Time;durP1;ratioP1;P1;durP2;ratioP2;P2;SDS_P1;SDS_P2;PMS_P1;PMS_P2;Temp;Humidity;BMP_temperature;BMP_pressure;BME280_temperature;BME280_humidity;BME280_pressure;Samples;Min_cycle;Max_cycle;Signal;HPM_P1;HPM_P2
2021/04/02 00:00:49;;;;;;;13.52;2.88;;;;;;;4.31;86.01;102716.38;4979025;28;20022;-71
2021/04/02 00:03:27;;;;;;;9.63;2.38;;;;;;;4.31;85.83;102712.84;4981374;28;20395;-71
2021/04/02 00:05:54;;;;;;;15.50;3.28;;;;;;;4.25;86.09;102716.63;4977778;28;20535;-72
2021/04/02 00:08:20;;;;;;;11.50;2.95;;;;;;;4.14;86.71;102707.38;4977002;28;20113;-72
2021/04/02 00:10:45;;;;;;;11.57;3.50;;;;;;;4.21;86.48;102709.72;4968364;28;20115;-72
2021/04/02 00:13:12;;;;;;;8.30;3.83;;;;;;;4.22;86.35;102708.81;4977310;28;20030;-72
2021/04/02 00:15:38;;;;;;;14.27;3.20;;;;;;;4.14;86.81;102704.72;4980730;28;20501;-71
2021/04/02 00:18:05;;;;;;;22.25;3.70;;;;;;;4.14;86.81;102714.41;4983642;28;20128;-72
2021/04/02 00:20:30;;;;;;;9.38;3.13;;;;;;;3.71;86.82;102645.78;4979074;28;20517;-71
2021/04/02 00:22:56;;;;;;;9.10;3.30;;;;;;;4.09;86.71;102717.25;4982183;28;20076;-71
2021/04/02 00:25:22;;;;;;;11.80;3.40;;;;;;;4.07;87.15;102712.97;4985426;28;20632;-72
2021/04/02 00:27:47;;;;;;;12.38;3.13;;;;;;;4.03;87.24;102714.03;4976608;28;20355;-71
2021/04/02 00:30:27;;;;;;;9.10;3.83;;;;;;;4.02;87.62;102715.81;4982420;28;20030;-71
2021/04/02 00:32:53;;;;;;;8.73;3.20;;;;;;;3.91;87.47;102702.19;4980297;28;20527;-72
2021/04/02 00:35:18;;;;;;;10.35;3.30;;;;;;;3.95;88.13;102716.97;4960117;28;20030;-71
2021/04/02 00:37:44;;;;;;;9.80;3.08;;;;;;;3.72;87.60;102676.53;4981724;28;20105;-71
2021/04/02 00:40:23;;;;;;;12.15;3.70;;;;;;;3.93;87.33;102713.56;4979095;28;20042;-72
2021/04/02 00:42:49;;;;;;;17.15;3.80;;;;;;;3.87;86.84;102717.28;4983852;28;20083;-72
2021/04/02 00:45:19;;;;;;;10.05;3.17;;;;;;;3.83;87.19;102716.56;4984583;28;20058;-71
2021/04/02 00:47:46;;;;;;;8.73;3.10;;;;;;;3.80;87.59;102710.56;4983483;28;20076;-71
2021/04/02 00:50:22;;;;;;;7.80;3.25;;;;;;;3.79;86.94;102708.84;4977352;28;20054;-71
2021/04/02 00:52:48;;;;;;;13.15;3.15;;;;;;;3.56;87.21;102681.59;4977683;28;20113;-71
2021/04/02 00:55:14;;;;;;;8.98;3.47;;;;;;;3.74;87.67;102716.06;4984070;28;20193;-71
2021/04/02 00:57:40;;;;;;;15.05;3.42;;;;;;;3.62;88.10;102699.81;4980397;28;20097;-71
2021/04/02 01:00:10;;;;;;;7.70;2.83;;;;;;;3.71;88.50;102719.72;4978282;28;20023;-72
2021/04/02 01:02:36;;;;;;;7.93;2.85;;;;;;;3.72;87.77;102720.59;4979795;28;20042;-71
2021/04/02 01:05:12;;;;;;;10.40;3.25;;;;;;;3.46;87.91;102665.25;4978360;28;20445;-71
2021/04/02 01:07:38;;;;;;;8.40;2.63;;;;;;;3.50;88.23;102677.44;4982230;28;20034;-71
2021/04/02 01:10:08;;;;;;;7.80;2.58;;;;;;;3.69;87.89;102708.34;4980828;28;20041;-71
2021/04/02 01:12:34;;;;;;;14.48;2.88;;;;;;;3.70;88.63;102710.06;4960923;28;20045;-71
2021/04/02 01:15:00;;;;;;;10.05;3.13;;;;;;;3.60;88.15;102698.16;4980617;28;20181;-71
2021/04/02 01:17:27;;;;;;;10.75;3.08;;;;;;;3.50;87.45;102687.13;4981716;28;20046;-71
2021/04/02 01:19:54;;;;;;;12.35;3.22;;;;;;;3.38;87.72;102664.72;4984147;28;20026;-71
2021/04/02 01:22:27;;;;;;;14.70;4.28;;;;;;;3.60;88.17;102706.94;4979367;28;20034;-71
2021/04/02 01:25:02;;;;;;;8.77;2.55;;;;;;;3.62;88.10;102712.16;4982610;28;20022;-71
2021/04/02 01:27:51;;;;;;;12.43;3.72;;;;;;;3.58;87.99;102711.44;4979626;28;20031;-72
2021/04/02 01:30:18;;;;;;;20.98;4.55;;;;;;;3.51;87.46;102700.28;4979660;28;20034;-72
2021/04/02 01:32:48;;;;;;;14.40;3.72;;;;;;;3.38;87.93;102696.41;4979830;28;20057;-71
2021/04/02 01:35:15;;;;;;;12.45;3.00;;;;;;;3.56;87.59;102713.28;4983004;28;20431;-71
2021/04/02 01:37:49;;;;;;;14.57;3.50;;;;;;;3.55;87.56;102705.41;4981884;28;20038;-72
2021/04/02 01:40:15;;;;;;;9.13;2.90;;;;;;;3.28;87.48;102664.22;4966233;28;20148;-72
2021/04/02 01:42:42;;;;;;;8.30;3.22;;;;;;;3.53;87.35;102703.69;4983348;28;20054;-72
2021/04/02 01:45:12;;;;;;;9.87;3.13;;;;;;;3.50;87.31;102714.38;4977520;28;20023;-72
2021/04/02 01:47:39;;;;;;;11.80;2.78;;;;;;;3.26;87.15;102668.69;4985054;28;20466;-71
2021/04/02 01:50:08;;;;;;;7.43;2.50;;;;;;;3.47;87.31;102705.72;4964714;28;20039;-72
2021/04/02 01:52:35;;;;;;;8.13;2.80;;;;;;;3.35;87.76;102699.16;4978817;28;20263;-72
2021/04/02 01:55:01;;;;;;;8.00;2.63;;;;;;;3.40;87.90;102707.72;4992331;28;20035;-71
2021/04/02 01:57:28;;;;;;;7.78;3.00;;;;;;;3.35;88.07;102707.91;4980842;28;20061;-72
2021/04/02 01:59:55;;;;;;;9.05;2.90;;;;;;;3.20;88.26;102679.47;4974210;28;20109;-72
2021/04/02 02:02:22;;;;;;;12.20;3.05;;;;;;;3.33;87.87;102711.53;4961898;28;20030;-71
2021/04/02 02:04:48;;;;;;;10.02;2.90;;;;;;;3.20;88.52;102695.31;4987711;28;20034;-72
2021/04/02 02:07:15;;;;;;;7.95;2.72;;;;;;;3.32;88.86;102710.69;4980504;28;20053;-71
2021/04/02 02:09:43;;;;;;;6.57;2.80;;;;;;;3.32;88.88;102712.47;4986034;28;20397;-72
2021/04/02 02:12:12;;;;;;;8.00;2.90;;;;;;;2.60;88.95;102606.19;4977323;28;20038;-72
2021/04/02 02:14:41;;;;;;;7.13;2.95;;;;;;;3.30;88.83;102709.00;4978178;28;20030;-72
2021/04/02 02:17:09;;;;;;;9.00;3.20;;;;;;;3.30;89.73;102711.66;4975115;28;20104;-71
2021/04/02 02:19:37;;;;;;;7.73;3.20;;;;;;;3.32;89.77;102709.81;4983483;28;20069;-72
2021/04/02 02:22:06;;;;;;;9.15;3.55;;;;;;;3.07;89.10;102663.28;4980924;28;20041;-72
2021/04/02 02:24:35;;;;;;;11.30;4.68;;;;;;;2.98;89.54;102656.59;4986251;28;20390;-72
2021/04/02 02:27:01;;;;;;;9.55;4.55;;;;;;;3.29;89.52;102705.53;4975517;28;20035;-72
2021/04/02 02:29:27;;;;;;;14.00;5.00;;;;;;;3.28;89.75;102708.22;4980633;28;20125;-72
2021/04/02 02:31:55;;;;;;;11.23;4.50;;;;;;;3.32;89.33;102704.53;4978875;28;20030;-72
2021/04/02 02:34:21;;;;;;;11.85;4.82;;;;;;;3.31;89.42;102701.06;4964055;28;20062;-71
2021/04/02 02:36:47;;;;;;;12.60;4.82;;;;;;;3.30;89.63;102707.25;4984123;28;20484;-71
2021/04/02 02:39:15;;;;;;;11.23;4.85;;;;;;;3.31;90.00;102708.09;4977655;28;20053;-71
2021/04/02 02:41:41;;;;;;;11.90;4.80;;;;;;;3.33;89.65;102709.75;4978653;28;20026;-71
2021/04/02 02:44:07;;;;;;;17.73;5.75;;;;;;;3.31;90.35;102703.69;4999334;28;20041;-71
2021/04/02 02:46:33;;;;;;;10.00;5.70;;;;;;;2.95;90.52;102646.16;4985689;28;20026;-71
2021/04/02 02:49:15;;;;;;;9.85;5.07;;;;;;;3.37;90.62;102703.44;4984934;28;20027;-71
2021/04/02 02:51:43;;;;;;;12.60;5.70;;;;;;;3.37;90.66;102703.44;4982750;28;20292;-70
2021/04/02 02:54:11;;;;;;;;;;;;;;;3.38;90.83;102706.97;4979491;28;20640;-71
2021/04/02 02:56:37;;;;;;;15.57;6.07;;;;;;;3.37;91.12;102713.16;4977576;28;19956;-73
2021/04/02 02:59:07;;;;;;;16.98;6.15;;;;;;;3.41;90.76;102703.31;4976534;28;20134;-71
2021/04/02 03:01:35;;;;;;;11.45;5.07;;;;;;;3.43;91.19;102701.50;4975646;28;20117;-71
2021/04/02 03:04:02;;;;;;;12.35;5.32;;;;;;;3.28;90.97;102680.06;4983203;28;20068;-73
2021/04/02 03:06:32;;;;;;;12.77;5.70;;;;;;;3.44;90.97;102704.06;4980783;28;20034;-71
2021/04/02 03:09:00;;;;;;;16.38;5.93;;;;;;;3.46;91.30;102701.38;4986274;28;20492;-73
2021/04/02 03:11:27;;;;;;;18.10;6.15;;;;;;;3.48;91.28;102696.88;4980538;28;20512;-73
2021/04/02 03:13:54;;;;;;;12.70;5.65;;;;;;;3.39;90.99;102690.22;4981456;28;20033;-73
2021/04/02 03:16:23;;;;;;;18.02;6.28;;;;;;;3.48;91.64;102700.38;4974230;28;20027;-73
2021/04/02 03:18:50;;;;;;;;;;;;;;;3.51;91.71;102702.03;4984543;28;20026;-72
2021/04/02 03:21:16;;;;;;;13.60;5.75;;;;;;;3.47;91.25;102693.38;4979529;28;19945;-72
2021/04/02 03:23:42;;;;;;;19.45;6.65;;;;;;;3.36;91.99;102680.59;4979357;28;20072;-71
2021/04/02 03:26:09;;;;;;;21.70;7.93;;;;;;;3.44;91.61;102692.66;4980273;28;20030;-71
2021/04/02 03:28:37;;;;;;;13.32;7.00;;;;;;;3.44;91.70;102690.88;4981892;28;20027;-72
2021/04/02 03:31:03;;;;;;;15.68;6.95;;;;;;;3.40;91.58;102694.53;4980715;28;20031;-72
2021/04/02 03:33:31;;;;;;;15.45;6.82;;;;;;;3.41;91.86;102688.34;4985407;28;20030;-72
2021/04/02 03:36:00;;;;;;;14.55;5.80;;;;;;;3.31;91.33;102664.13;4983109;28;20038;-72
2021/04/02 03:38:31;;;;;;;15.60;6.78;;;;;;;3.43;91.57;102689.13;4981093;28;20030;-72
2021/04/02 03:40:59;;;;;;;18.20;5.30;;;;;;;3.40;91.43;102691.91;4974362;28;20353;-71
2021/04/02 03:43:26;;;;;;;16.20;5.40;;;;;;;3.44;92.07;102688.22;4980676;28;20430;-72
2021/04/02 03:45:52;;;;;;;14.25;5.22;;;;;;;3.24;91.10;102661.78;4978874;28;20042;-72
2021/04/02 03:48:19;;;;;;;9.25;4.30;;;;;;;3.42;91.54;102681.28;4974988;28;20493;-72
2021/04/02 03:50:51;;;;;;;17.63;5.40;;;;;;;3.24;91.26;102659.13;4977876;28;20053;-72
2021/04/02 03:53:24;;;;;;;17.45;5.05;;;;;;;3.42;91.54;102689.22;4978381;28;20093;-72
2021/04/02 03:55:52;;;;;;;17.15;5.38;;;;;;;3.43;91.55;102688.28;4982840;28;20137;-72
2021/04/02 03:58:20;;;;;;;20.95;5.20;;;;;;;3.46;91.34;102690.81;4981379;28;20061;-72
2021/04/02 04:00:54;;;;;;;12.65;4.40;;;;;;;3.39;91.70;102668.22;4980231;28;20030;-72
2021/04/02 04:03:20;;;;;;;16.38;4.20;;;;;;;2.76;91.49;102553.72;4984298;28;20029;-72
2021/04/02 04:05:50;;;;;;;17.02;4.32;;;;;;;3.66;91.39;102688.22;4991549;28;20109;-72
2021/04/02 04:08:16;;;;;;;12.20;3.47;;;;;;;3.76;91.37;102691.34;4984253;28;20027;-72
2021/04/02 04:10:43;;;;;;;18.40;4.00;;;;;;;3.86;90.91;102689.19;4990999;28;20130;-72
2021/04/02 04:13:15;;;;;;;15.05;4.05;;;;;;;3.98;90.43;102693.97;4986299;28;20348;-72
2021/04/02 04:15:42;;;;;;;16.00;4.38;;;;;;;4.02;89.50;102667.38;4990358;28;20034;-72
2021/04/02 04:18:09;;;;;;;16.65;4.20;;;;;;;4.21;89.53;102685.94;4990036;28;20044;-72
2021/04/02 04:20:36;;;;;;;12.77;3.97;;;;;;;4.12;88.76;102660.81;4977239;28;20118;-72
2021/04/02 04:23:04;;;;;;;13.38;3.75;;;;;;;4.37;88.33;102694.09;4987871;28;20034;-72
2021/04/02 04:25:30;;;;;;;16.80;3.58;;;;;;;4.26;88.07;102663.72;4979474;28;20038;-72
2021/04/02 04:27:58;;;;;;;17.20;3.75;;;;;;;4.47;87.86;102691.91;4986130;28;20022;-72
2021/04/02 04:30:25;;;;;;;19.38;4.05;;;;;;;4.54;87.37;102696.88;4987663;28;20125;-73
2021/04/02 04:32:54;;;;;;;19.63;4.03;;;;;;;4.59;87.26;102692.22;4979761;28;20563;-72
2021/04/02 04:35:20;;;;;;;14.73;4.47;;;;;;;4.63;86.97;102686.78;4971944;28;20026;-72
2021/04/02 04:37:46;;;;;;;15.25;3.70;;;;;;;4.65;86.29;102687.59;4984309;28;20037;-73
2021/04/02 04:40:15;;;;;;;10.82;3.25;;;;;;;4.66;86.42;102692.78;4979504;28;20104;-72
2021/04/02 04:42:44;;;;;;;19.48;4.18;;;;;;;4.66;86.04;102698.09;4984377;28;20609;-73
2021/04/02 04:45:11;;;;;;;19.98;4.53;;;;;;;4.60;86.07;102685.16;4982051;28;20034;-72
2021/04/02 04:47:37;;;;;;;13.73;3.75;;;;;;;4.69;86.22;102695.31;4985828;28;20035;-72
2021/04/02 04:50:05;;;;;;;14.93;3.72;;;;;;;4.56;86.15;102678.28;4989531;28;20026;-72
2021/04/02 04:52:32;;;;;;;10.75;3.08;;;;;;;4.78;85.13;102704.63;4977619;28;20038;-72
2021/04/02 04:55:03;;;;;;;19.65;5.40;;;;;;;4.76;85.39;102709.13;4979594;28;20050;-72
2021/04/02 04:57:33;;;;;;;18.98;3.85;;;;;;;4.79;85.55;102716.03;4978224;28;20109;-72
2021/04/02 05:00:00;;;;;;;12.18;3.30;;;;;;;4.83;84.97;102710.53;4977587;28;20053;-72
2021/04/02 05:02:26;;;;;;;8.63;3.13;;;;;;;4.82;85.03;102711.47;4982470;28;20141;-72
2021/04/02 05:04:53;;;;;;;14.43;3.53;;;;;;;4.81;84.50;102715.06;4988867;28;20131;-72
2021/04/02 05:07:21;;;;;;;15.55;3.28;;;;;;;4.76;84.55;102706.47;4985388;28;20062;-72
2021/04/02 05:09:48;;;;;;;11.48;3.00;;;;;;;4.81;83.88;102714.19;4990637;28;20019;-72
2021/04/02 05:12:16;;;;;;;11.27;2.80;;;;;;;4.67;84.03;102691.03;4983701;28;20029;-73
2021/04/02 05:14:45;;;;;;;14.68;3.67;;;;;;;4.88;83.35;102711.19;4978072;28;20069;-73
2021/04/02 05:17:10;;;;;;;;;;;;;;;4.87;83.78;102709.47;4978878;28;20099;-72
2021/04/02 05:19:39;;;;;;;11.32;3.17;;;;;;;4.88;83.96;102718.28;4970584;28;19957;-73
2021/04/02 05:22:08;;;;;;;10.20;3.15;;;;;;;4.88;83.89;102711.19;4981761;28;20092;-72
2021/04/02 05:24:33;;;;;;;10.85;3.50;;;;;;;4.50;83.40;102660.91;4975768;28;20030;-72
2021/04/02 05:26:59;;;;;;;20.40;3.50;;;;;;;4.89;83.65;102712.03;4977495;28;20049;-72
2021/04/02 05:29:25;;;;;;;16.00;3.80;;;;;;;4.93;83.66;102707.50;4976793;28;20086;-72
2021/04/02 05:31:50;;;;;;;14.30;3.70;;;;;;;4.95;83.79;102719.72;4978284;28;20347;-71
2021/04/02 05:34:15;;;;;;;14.38;3.58;;;;;;;4.97;83.95;102719.63;4981402;28;20031;-71
2021/04/02 05:36:41;;;;;;;12.07;3.33;;;;;;;5.00;83.04;102717.72;4981736;28;20039;-73
2021/04/02 05:39:06;;;;;;;16.08;3.33;;;;;;;5.01;83.53;102715.94;4989175;28;20022;-72
2021/04/02 05:41:43;;;;;;;14.38;3.63;;;;;;;5.03;83.96;102719.38;4983620;28;20034;-72
2021/04/02 05:44:13;;;;;;;17.60;3.47;;;;;;;5.08;83.74;102720.03;4967164;28;20485;-72
2021/04/02 05:46:40;;;;;;;14.40;3.50;;;;;;;5.11;83.23;102714.56;4983869;28;20029;-72
2021/04/02 05:49:06;;;;;;;15.18;3.10;;;;;;;5.13;83.87;102712.72;4976647;28;20031;-73
2021/04/02 05:51:32;;;;;;;13.18;3.10;;;;;;;5.16;83.23;102709.06;4986027;28;20116;-72
2021/04/02 05:53:59;;;;;;;11.93;4.18;;;;;;;5.20;82.91;102721.22;4986886;28;20051;-73
2021/04/02 05:56:26;;;;;;;15.65;3.30;;;;;;;5.22;82.96;102716.72;4983929;28;20069;-72
2021/04/02 05:58:52;;;;;;;16.02;4.03;;;;;;;5.26;82.78;102717.44;4986648;28;20536;-73
2021/04/02 06:01:18;;;;;;;11.90;3.10;;;;;;;5.29;82.49;102726.09;4968785;28;20121;-72
2021/04/02 06:03:44;;;;;;;10.75;2.88;;;;;;;5.29;81.78;102723.47;4976678;28;20053;-72
2021/04/02 06:06:13;;;;;;;12.65;3.05;;;;;;;5.31;82.15;102721.56;4988904;28;20130;-72
2021/04/02 06:08:45;;;;;;;13.02;3.05;;;;;;;5.34;82.45;102718.78;4984496;28;20492;-74
2021/04/02 06:11:11;;;;;;;13.38;4.10;;;;;;;5.39;82.36;102723.00;4980894;28;20047;-72
2021/04/02 06:13:37;;;;;;;13.65;3.53;;;;;;;5.43;81.18;102722.78;4972668;28;20034;-70
2021/04/02 06:16:03;;;;;;;15.23;3.45;;;;;;;5.47;81.90;102720.84;4974450;28;20108;-71
2021/04/02 06:18:28;;;;;;;14.48;3.13;;;;;;;5.50;80.91;102721.56;4973167;28;20050;-71
2021/04/02 06:20:54;;;;;;;19.98;3.53;;;;;;;5.57;80.71;102723.91;4974903;28;20437;-73
2021/04/02 06:23:25;;;;;;;17.17;3.78;;;;;;;5.42;81.21;102694.59;4978350;28;20042;-72
2021/04/02 06:25:52;;;;;;;15.38;3.33;;;;;;;5.45;80.83;102696.22;4978194;28;20048;-73
2021/04/02 06:28:26;;;;;;;15.85;3.08;;;;;;;5.68;80.06;102732.19;4978811;28;20129;-72
2021/04/02 06:30:57;;;;;;;15.18;2.95;;;;;;;5.74;80.10;102738.97;4974583;28;20299;-72
2021/04/02 06:33:30;;;;;;;12.45;2.90;;;;;;;5.77;79.27;102734.38;4979684;28;20401;-73
2021/04/02 06:35:56;;;;;;;12.70;2.95;;;;;;;5.76;79.89;102732.69;4947012;28;20036;-72
2021/04/02 06:38:21;;;;;;;15.32;3.45;;;;;;;5.84;79.64;102740.25;4985126;28;20782;-73
2021/04/02 06:40:47;;;;;;;12.63;2.80;;;;;;;5.84;79.10;102742.88;4975115;28;20030;-73
2021/04/02 06:43:12;;;;;;;13.90;3.22;;;;;;;5.89;78.90;102737.38;4973727;28;20030;-72
2021/04/02 06:45:39;;;;;;;14.57;2.95;;;;;;;5.98;76.84;102742.22;4980848;28;20033;-72
2021/04/02 06:48:13;;;;;;;13.40;3.03;;;;;;;6.00;77.45;102742.16;4978872;28;20034;-73
2021/04/02 06:50:40;;;;;;;10.82;2.72;;;;;;;6.05;77.86;102745.47;4981755;28;20078;-72
2021/04/02 06:53:06;;;;;;;19.70;3.17;;;;;;;6.09;77.24;102737.28;4979797;28;20132;-72
2021/04/02 06:55:32;;;;;;;13.02;3.55;;;;;;;6.12;77.14;102753.03;4977681;28;20089;-72
2021/04/02 06:58:05;;;;;;;12.50;3.50;;;;;;;6.17;76.92;102744.00;4980090;28;20092;-72
2021/04/02 07:00:34;;;;;;;11.45;2.75;;;;;;;6.21;77.33;102738.47;4975957;28;20049;-72
2021/04/02 07:03:04;;;;;;;14.00;2.47;;;;;;;6.32;75.16;102759.09;4972717;28;20034;-72
2021/04/02 07:05:30;;;;;;;9.82;2.42;;;;;;;6.22;73.83;102734.00;4973421;28;20125;-71
2021/04/02 07:08:04;;;;;;;11.65;2.63;;;;;;;6.13;72.99;102724.72;4961943;28;20045;-72
2021/04/02 07:10:31;;;;;;;16.38;3.22;;;;;;;6.37;71.84;102759.75;4974796;28;20035;-71
2021/04/02 07:13:00;;;;;;;15.68;3.50;;;;;;;6.41;71.88;102755.13;4975697;28;20035;-71
2021/04/02 07:15:26;;;;;;;15.57;3.20;;;;;;;6.46;73.33;102761.06;4975054;28;20180;-68
2021/04/02 07:17:53;;;;;;;14.13;3.35;;;;;;;6.38;73.17;102755.31;4974294;28;20121;-70
2021/04/02 07:20:19;;;;;;;15.85;3.17;;;;;;;6.55;73.42;102770.34;4960024;28;20028;-70
2021/04/02 07:22:45;;;;;;;19.98;3.25;;;;;;;6.54;73.53;102774.78;4976516;28;20096;-70
2021/04/02 07:25:12;;;;;;;19.27;3.03;;;;;;;6.56;73.57;102774.72;4976045;28;20046;-71
2021/04/02 07:27:38;;;;;;;10.90;2.65;;;;;;;6.60;72.44;102776.25;4975831;28;20093;-70
2021/04/02 07:30:08;;;;;;;16.73;3.40;;;;;;;6.63;72.16;102776.09;4977101;28;20042;-70
2021/04/02 07:32:37;;;;;;;13.27;2.72;;;;;;;6.63;71.89;102780.56;4974052;28;20123;-70
2021/04/02 07:35:04;;;;;;;13.35;3.30;;;;;;;6.40;71.07;102756.94;4983707;28;20065;-71
2021/04/02 07:37:38;;;;;;;13.60;2.90;;;;;;;6.58;70.60;102786.94;4976178;28;20026;-71
2021/04/02 07:40:13;;;;;;;10.63;2.30;;;;;;;6.58;69.28;102794.91;4980450;28;20112;-71
2021/04/02 07:42:38;;;;;;;12.05;2.65;;;;;;;6.49;68.45;102789.22;4972813;28;20505;-71
2021/04/02 07:45:05;;;;;;;8.88;2.10;;;;;;;6.56;69.19;102802.09;4975865;28;20085;-71
2021/04/02 07:47:31;;;;;;;14.43;2.13;;;;;;;6.52;68.58;102803.16;4983108;28;20038;-70
2021/04/02 07:50:01;;;;;;;9.60;1.80;;;;;;;6.55;67.91;102804.81;4978875;28;20041;-71
2021/04/02 07:52:40;;;;;;;11.20;2.17;;;;;;;6.56;67.85;102810.03;4978606;28;20034;-71
2021/04/02 07:55:06;;;;;;;7.70;2.13;;;;;;;6.60;66.49;102805.44;4976236;28;20054;-71
2021/04/02 07:57:48;;;;;;;11.68;2.00;;;;;;;6.35;65.68;102758.94;4980145;28;20026;-71
2021/04/02 08:00:15;;;;;;;10.38;2.35;;;;;;;6.43;65.86;102767.38;4973857;28;20042;-71
2021/04/02 08:02:44;;;;;;;11.80;2.10;;;;;;;6.64;66.33;102748.63;4961065;28;20453;-71
2021/04/02 08:05:16;;;;;;;10.05;1.98;;;;;;;6.99;64.79;102796.31;4978304;28;20026;-70
2021/04/02 08:07:45;;;;;;;9.48;1.90;;;;;;;7.01;64.41;102801.56;4976883;28;20042;-70
2021/04/02 08:10:12;;;;;;;10.73;1.95;;;;;;;6.71;64.43;102742.09;4993345;28;20034;-70
2021/04/02 08:12:38;;;;;;;9.38;1.88;;;;;;;7.01;65.04;102785.63;4978252;28;20052;-70
2021/04/02 08:15:16;;;;;;;12.18;2.60;;;;;;;7.06;65.77;102810.13;4978206;28;20121;-70
2021/04/02 08:17:44;;;;;;;9.93;2.15;;;;;;;6.93;65.83;102777.22;4979855;28;20042;-70
2021/04/02 08:20:16;;;;;;;12.75;3.08;;;;;;;6.95;66.20;102775.34;4975427;28;20074;-71
2021/04/02 08:22:42;;;;;;;10.77;2.70;;;;;;;7.07;66.07;102809.19;4958960;28;20149;-71
2021/04/02 08:25:13;;;;;;;12.77;3.20;;;;;;;6.51;66.91;102732.50;4980338;28;20142;-70
2021/04/02 08:27:40;;;;;;;13.40;3.00;;;;;;;7.07;66.42;102809.19;4982973;28;20041;-71
2021/04/02 08:30:08;;;;;;;7.70;2.13;;;;;;;6.84;65.58;102768.81;4979471;28;20031;-71
2021/04/02 08:32:39;;;;;;;14.20;3.35;;;;;;;7.18;65.25;102821.91;4973734;28;20121;-72
2021/04/02 08:35:09;;;;;;;13.23;2.70;;;;;;;7.22;65.91;102823.47;4976365;28;20038;-71
2021/04/02 08:37:35;;;;;;;12.00;2.88;;;;;;;7.23;65.61;102824.31;4975122;28;20030;-71
2021/04/02 08:40:09;;;;;;;14.52;2.38;;;;;;;7.24;65.05;102821.59;4978643;28;20068;-71
2021/04/02 08:42:35;;;;;;;15.02;3.42;;;;;;;7.36;64.92;102814.72;4976238;28;20022;-71
2021/04/02 08:45:09;;;;;;;18.88;2.67;;;;;;;7.29;65.17;102830.13;4977029;28;20045;-71
2021/04/02 08:47:39;;;;;;;12.55;2.75;;;;;;;7.30;65.06;102823.91;4977197;28;20069;-71
2021/04/02 08:50:07;;;;;;;9.63;2.15;;;;;;;7.33;64.38;102817.53;4977932;28;20039;-68
2021/04/02 08:52:32;;;;;;;;;;;;;;;7.44;64.78;102814.31;4977354;28;20035;-68
2021/04/02 08:55:05;;;;;;;15.27;2.78;;;;;;;7.40;64.01;102791.50;4980989;28;19929;-72
2021/04/02 08:57:32;;;;;;;12.65;2.88;;;;;;;7.45;64.09;102814.25;4985314;28;20038;-70
2021/04/02 09:00:07;;;;;;;14.20;2.88;;;;;;;7.51;64.50;102819.22;4967819;28;20027;-72
2021/04/02 09:02:34;;;;;;;15.65;2.72;;;;;;;7.51;63.71;102824.53;4980600;28;20238;-75
2021/04/02 09:05:02;;;;;;;15.90;2.67;;;;;;;7.56;63.63;102824.25;4966183;28;20107;-73
2021/04/02 09:07:27;;;;;;;15.50;2.80;;;;;;;7.55;63.91;102829.69;4977831;28;20069;-71
2021/04/02 09:09:53;;;;;;;14.98;2.50;;;;;;;7.65;63.38;102825.56;4980694;28;20038;-71
2021/04/02 09:12:20;;;;;;;9.15;2.30;;;;;;;7.68;63.20;102820.06;4981393;28;20108;-71
2021/04/02 09:14:52;;;;;;;8.70;2.50;;;;;;;7.70;62.97;102820.84;4981546;28;20035;-71
2021/04/02 09:17:23;;;;;;;10.98;2.42;;;;;;;7.79;62.38;102832.78;4978764;28;20030;-71
2021/04/02 09:19:50;;;;;;;13.75;3.35;;;;;;;7.84;60.86;102837.84;4974726;28;20068;-72
2021/04/02 09:22:16;;;;;;;12.55;3.25;;;;;;;7.86;61.41;102826.16;4974187;28;20030;-71
2021/04/02 09:24:44;;;;;;;14.45;2.33;;;;;;;7.61;61.04;102803.63;4973417;28;20410;-71
2021/04/02 09:27:12;;;;;;;10.93;2.15;;;;;;;7.85;60.78;102827.09;4975121;28;20109;-71
2021/04/02 09:29:38;;;;;;;13.85;2.78;;;;;;;7.76;62.12;102825.81;4977538;28;20034;-73
2021/04/02 09:32:04;;;;;;;19.08;2.45;;;;;;;7.75;63.06;102825.91;4978565;28;20103;-69
2021/04/02 09:34:31;;;;;;;10.93;2.22;;;;;;;7.73;62.15;102828.66;4975352;28;20748;-70
2021/04/02 09:36:57;;;;;;;10.20;1.88;;;;;;;7.75;61.88;102824.09;4975429;28;20085;-70
2021/04/02 09:39:27;;;;;;;12.68;1.85;;;;;;;7.70;62.17;102826.16;4977609;28;20037;-70
2021/04/02 09:42:04;;;;;;;12.25;2.47;;;;;;;7.82;62.73;102827.25;4987587;28;20026;-71
2021/04/02 09:44:32;;;;;;;12.18;2.47;;;;;;;7.86;61.89;102823.50;4979310;28;20482;-70
2021/04/02 09:47:09;;;;;;;12.60;3.25;;;;;;;7.72;61.05;102788.88;4978880;28;20066;-70
2021/04/02 09:49:37;;;;;;;12.95;2.92;;;;;;;7.91;61.21;102818.78;4979256;28;20042;-70
2021/04/02 09:52:05;;;;;;;14.70;2.55;;;;;;;8.00;60.15;102819.19;4989865;28;20034;-70
2021/04/02 09:54:32;;;;;;;10.98;3.38;;;;;;;8.00;60.40;102820.06;4975587;28;20065;-70
2021/04/02 09:57:01;;;;;;;10.32;2.40;;;;;;;7.90;61.39;102817.06;4971113;28;20046;-70
2021/04/02 09:59:27;;;;;;;11.02;2.10;;;;;;;8.01;61.93;102824.41;4975036;28;20037;-71
2021/04/02 10:01:52;;;;;;;15.82;2.78;;;;;;;7.94;60.84;102826.56;4969689;28;20035;-70
2021/04/02 10:04:18;;;;;;;16.05;2.47;;;;;;;7.98;61.59;102829.94;4975500;28;20038;-70
2021/04/02 10:06:44;;;;;;;13.30;2.55;;;;;;;8.13;61.03;102828.19;4977462;28;20242;-70
2021/04/02 10:09:10;;;;;;;12.43;2.13;;;;;;;8.18;60.67;102827.91;4974580;28;20088;-70
2021/04/02 10:11:42;;;;;;;14.52;3.05;;;;;;;8.11;61.08;102820.31;4976949;28;20484;-70
2021/04/02 10:14:07;;;;;;;14.95;2.75;;;;;;;8.13;60.98;102833.50;4977154;28;20022;-70
2021/04/02 10:16:33;;;;;;;19.98;2.72;;;;;;;7.88;60.23;102795.03;4975193;28;20499;-70
2021/04/02 10:18:58;;;;;;;12.52;2.15;;;;;;;8.06;60.30;102832.16;4972515;28;20038;-71
2021/04/02 10:21:24;;;;;;;15.43;2.22;;;;;;;8.07;59.19;102825.91;4974276;28;20469;-70
2021/04/02 10:23:52;;;;;;;11.68;2.03;;;;;;;8.12;58.74;102818.50;4985890;28;20030;-71
2021/04/02 10:26:18;;;;;;;11.33;1.83;;;;;;;8.30;58.67;102842.31;4984496;28;20024;-71
2021/04/02 10:28:44;;;;;;;13.38;2.20;;;;;;;8.20;58.75;102832.22;4982584;28;20022;-71
2021/04/02 10:31:10;;;;;;;10.57;2.13;;;;;;;8.17;59.58;102842.16;4983916;28;20039;-72
2021/04/02 10:33:36;;;;;;;13.32;4.10;;;;;;;8.12;59.10;102842.44;4985133;28;20038;-71
2021/04/02 10:36:02;;;;;;;15.93;2.47;;;;;;;8.06;59.86;102835.66;4981814;28;20500;-71
2021/04/02 10:38:27;;;;;;;20.60;2.40;;;;;;;8.20;59.38;102836.66;4982792;28;20053;-71
2021/04/02 10:40:54;;;;;;;15.52;2.22;;;;;;;8.38;59.71;102838.28;4981556;28;20274;-71
2021/04/02 10:43:20;;;;;;;11.18;2.30;;;;;;;8.23;59.85;102781.50;4978212;28;20503;-71
2021/04/02 10:45:46;;;;;;;15.60;2.83;;;;;;;8.61;59.82;102825.44;4984135;28;20547;-72
2021/04/02 10:48:11;;;;;;;12.95;2.53;;;;;;;8.54;59.64;102826.75;4985020;28;20035;-72
2021/04/02 10:50:39;;;;;;;15.05;2.67;;;;;;;8.43;61.29;102830.00;4985100;28;20053;-72
2021/04/02 10:53:05;;;;;;;16.73;3.13;;;;;;;8.53;60.36;102836.53;4979694;28;20043;-72
2021/04/02 10:55:32;;;;;;;15.15;2.85;;;;;;;8.71;59.61;102845.22;4990370;28;20034;-71
2021/04/02 10:57:57;;;;;;;13.63;2.42;;;;;;;8.75;59.51;102845.03;4987353;28;20030;-72
2021/04/02 11:00:24;;;;;;;12.75;2.45;;;;;;;8.86;58.92;102842.59;4981622;28;20033;-72
2021/04/02 11:02:50;;;;;;;12.02;2.38;;;;;;;8.77;58.03;102840.50;4981547;28;20502;-72
2021/04/02 11:05:17;;;;;;;15.38;2.28;;;;;;;8.70;58.28;102832.84;4981674;28;20063;-72
2021/04/02 11:07:42;;;;;;;11.43;2.20;;;;;;;8.71;57.73;102836.41;4983125;28;20057;-72
2021/04/02 11:10:10;;;;;;;12.70;2.35;;;;;;;8.75;57.72;102831.72;4979570;28;20413;-73
2021/04/02 11:12:37;;;;;;;13.45;2.53;;;;;;;8.81;57.49;102834.88;4980552;28;20033;-73
2021/04/02 11:15:04;;;;;;;15.38;2.75;;;;;;;8.47;58.50;102788.97;4981397;28;20045;-74
2021/04/02 11:17:30;;;;;;;10.43;2.17;;;;;;;8.89;58.21;102829.09;4982598;28;20041;-70
2021/04/02 11:19:57;;;;;;;12.63;2.25;;;;;;;8.98;58.74;102828.53;4980762;28;20081;-70
2021/04/02 11:22:23;;;;;;;12.30;2.63;;;;;;;8.66;57.67;102787.88;4982951;28;20444;-70
2021/04/02 11:24:49;;;;;;;15.43;2.95;;;;;;;8.89;59.21;102831.75;4978572;28;20084;-70
2021/04/02 11:27:14;;;;;;;13.10;2.60;;;;;;;8.76;58.97;102810.34;4965559;28;20430;-71
2021/04/02 11:29:40;;;;;;;17.85;2.75;;;;;;;8.88;60.29;102827.38;4979445;28;20038;-70